• Join FlightAware (Why Join?)
  • Login
  • US Flag 
07:22AM EDT


 

Airport Tracker/Info


-or-


 

Live Flight TrackerFlight Track Log ✈ SWA232 ✈ 24-Apr-2013 ✈ KMHT - KMDW

Flight Track Log - Related Links

Times and Time Zones

All times are in EDT time to prevent confusion due to time zone crossing. See the SWA232 flight status page for this flight to view local times or setup timezone preferences in your user account.

Time Position Orientation Groundspeed Altitude Reporting Facility
EDT Latitude Longitude Course Direction KTS MPH feet Rate Location/Type
06:45AM 42.9500 -71.4167 270° West 157 181 1,300  Level KA90
06:46AM 42.9667 -71.4167 360° North 164 189 2,000 2,220 Climbing KA90
06:47AM 43.0186 -71.3867 23° Northeast 213 245 4,700 1,980 Climbing Boston Center
06:48AM 43.0672 -71.4625 311° West 201 231 6,500 2,100 Climbing Boston Center
06:49AM 43.1033 -71.5414 302° West 248 285 8,900 2,280 Climbing Boston Center
06:50AM 43.1106 -71.6667 275° West 291 335 11,100 2,700 Climbing Boston Center
06:51AM 42.9500 -72.2036 270° West  Level FlightAware Approximate
06:51AM 43.1136 -71.8058 272° West 354 407 14,300  Level Boston Center
06:52AM 43.1164 -71.9453 272° West 364 419 17,000 2,160 Climbing Boston Center
06:53AM 43.1208 -72.0789 273° West 377 434 18,700 2,220 Climbing Boston Center
06:54AM 43.1256 -72.2267 273° West 387 445 21,500 2,220 Climbing Boston Center
06:55AM 43.1361 -72.3747 276° West 392 451 23,200 1,860 Climbing Boston Center
06:56AM 43.1381 -72.5339 271° West 403 464 25,300 2,100 Climbing Boston Center
06:57AM 43.1358 -72.6933 269° West 415 478 27,400 1,860 Climbing Boston Center
06:58AM 43.1417 -72.8497 273° West 416 479 29,100 1,500 Climbing Boston Center
06:59AM 43.1450 -73.0292 272° West 422 486 30,500 1,500 Climbing Boston Center
07:00AM 43.1483 -73.1914 272° West 427 491 32,200 1,500 Climbing Boston Center
07:01AM 43.1511 -73.3508 271° West 427 491 33,500 1,260 Climbing Boston Center
07:02AM 43.1519 -73.5072 270° West 422 486 34,800 1,200 Climbing Boston Center
07:03AM 43.1525 -73.6694 270° West 422 486 35,900 600 Climbing Boston Center
07:04AM 43.1550 -73.8119 271° West 422 486 36,000  Climbing Boston Center
07:05AM 43.1550 -73.9683 270° West 422 486 36,000  Level Boston Center
07:06AM 43.1589 -74.1281 272° West 422 486 36,000  Level Boston Center
07:07AM 43.1586 -74.2872 270° West 422 486 36,000  Level Boston Center
07:08AM 43.1622 -74.4442 272° West 422 486 36,000  Level Boston Center
07:09AM 43.1636 -74.5950 271° West 417 480 36,000  Level Boston Center
07:10AM 43.1628 -74.7458 270° West 412 474 36,000  Level Boston Center
07:11AM 43.1639 -74.8967 271° West 402 463 36,000  Level Boston Center
07:12AM 43.1647 -75.0478 270° West 402 463 36,000  Level Boston Center
07:13AM 43.1647 -75.2156 270° West 402 463 36,000  Level Boston Center
07:14AM 43.1569 -75.3661 266° West 402 463 36,000  Level Boston Center
07:16AM 43.0978 -75.6208 252° West 391 450 36,000  Level Cleveland Center
07:17AM 43.0642 -75.7628 252° West 391 450 36,000  Level Cleveland Center
07:18AM 43.0303 -75.9019 252° West 396 456 36,000  Level Cleveland Center
07:19AM 42.9944 -76.0494 252° West 396 456 36,000  Level Cleveland Center
07:20AM 42.9603 -76.1911 252° West 401 461 36,000  Level Cleveland Center
07:21AM 42.9239 -76.3325 251° West 401 461 36,000  Level Cleveland Center
07:22AM 42.8894 -76.4711 251° West 396 456 36,000  Level Cleveland Center
07:23AM 42.8547 -76.6122 251° West 396 456 36,000  Level Cleveland Center
07:24AM 42.8233 -76.7358 251° West 391 450 36,000  Level Cleveland Center
07:25AM 42.7883 -76.8711 251° West 391 450 36,000  Level Cleveland Center
07:26AM 42.7550 -77.0058 251° West 386 444 36,000  Level Cleveland Center
07:27AM 42.7194 -77.1408 250° West 386 444 36,000  Level Cleveland Center
07:28AM 42.6858 -77.2728 251° West 379 436 36,000  Level Cleveland Center
07:29AM 42.6519 -77.4014 250° West 374 430 36,000 360 Level Cleveland Center
07:30AM 42.6122 -77.5503 250° West 379 436 36,800 900 Climbing Cleveland Center
07:31AM 42.5781 -77.6872 251° West 379 436 37,800 600 Climbing Cleveland Center
07:32AM 42.5397 -77.8244 249° West 379 436 38,000 60 Climbing Cleveland Center
07:33AM 42.5072 -77.9525 251° West 374 430 38,000  Level Cleveland Center
07:34AM 42.4728 -78.0833 250° West 374 430 38,000  Level Cleveland Center
07:35AM 42.4381 -78.2169 251° West 374 430 38,000  Level Cleveland Center
07:36AM 42.4031 -78.3478 250° West 374 430 38,000  Level Cleveland Center
07:37AM 42.3681 -78.4811 250° West 374 430 38,000  Level Cleveland Center
07:38AM 42.3308 -78.6142 249° West 374 430 38,000  Level Cleveland Center
07:39AM 42.2956 -78.7417 250° West 374 430 38,000  Level Cleveland Center
07:40AM 42.2578 -78.8747 249° West 374 430 38,000  Level Cleveland Center
07:41AM 42.2203 -79.0047 249° West 374 430 38,000  Level Cleveland Center
07:42AM 42.1883 -79.1258 250° West 374 430 38,000  Level Cleveland Center
07:43AM 42.1544 -79.2583 251° West 374 430 38,000  Level Cleveland Center
07:44AM 42.1206 -79.3878 251° West 374 430 38,000  Level Cleveland Center
07:45AM 42.0864 -79.5256 252° West 374 430 38,000  Level Cleveland Center
07:46AM 42.0500 -79.6575 250° West 374 430 38,000  Level Cleveland Center
07:47AM 42.0156 -79.7922 251° West 384 442 38,000  Level Cleveland Center
07:48AM 41.9789 -79.9294 250° West 384 442 38,000  Level Cleveland Center
07:49AM 41.9422 -80.0639 250° West 391 450 38,000  Level Cleveland Center
07:50AM 41.9053 -80.2008 250° West 391 450 38,000  Level Cleveland Center
07:51AM 41.8681 -80.3378 250° West 391 450 38,000  Level Cleveland Center
07:52AM 41.8286 -80.4828 250° West 391 450 38,000  Level Cleveland Center
07:53AM 41.7933 -80.6167 251° West 391 450 38,000  Level Cleveland Center
07:54AM 41.7556 -80.7531 250° West 391 450 38,000  Level Cleveland Center
07:55AM 41.7197 -80.8864 250° West 391 450 38,000  Level Cleveland Center
07:56AM 41.6819 -81.0169 249° West 382 440 38,000  Level Cleveland Center
07:57AM 41.6458 -81.1472 250° West 382 440 38,000  Level Cleveland Center
07:58AM 41.6097 -81.2803 250° West 387 445 38,000  Level Cleveland Center
07:59AM 41.5733 -81.4103 250° West 387 445 38,000  Level Cleveland Center
08:00AM 41.5347 -81.5428 249° West 387 445 38,000  Level Cleveland Center
08:01AM 41.5003 -81.6728 251° West 387 445 38,000  Level Cleveland Center
08:02AM 41.4636 -81.8050 250° West 382 440 38,000  Level Cleveland Center
08:03AM 41.4247 -81.9317 248° West 382 440 38,000  Level Cleveland Center
08:04AM 41.3897 -82.0472 248° West 382 440 38,000  Level Cleveland Center
08:05AM 41.3608 -82.1933 255° West 377 434 38,000  Level Cleveland Center
08:06AM 41.3672 -82.3233 274° West 361 415 38,000  Level Cleveland Center
08:07AM 41.3733 -82.4564 274° West 361 415 38,000  Level Cleveland Center
08:08AM 41.3797 -82.5728 274° West 355 409 38,000  Level Cleveland Center
08:09AM 41.3881 -82.7006 275° West 355 409 38,000  Level Cleveland Center
08:10AM 41.3939 -82.8281 274° West 347 399 38,000  Level Cleveland Center
08:11AM 41.4017 -82.9583 275° West 347 399 38,000  Level Cleveland Center
08:12AM 41.4094 -83.0833 275° West 347 399 38,000  Level Cleveland Center
08:13AM 41.4147 -83.2219 273° West 347 399 38,000 -180 Level Cleveland Center
08:14AM 41.4219 -83.3494 274° West 347 399 37,700 -660 Descending Cleveland Center
08:15AM 41.4250 -83.4800 272° West 347 399 36,700 -900 Descending Cleveland Center
08:16AM 41.4339 -83.6161 275° West 352 405 36,000 -360 Descending Cleveland Center
08:17AM 41.4386 -83.7492 273° West 363 418 36,000  Level Cleveland Center
08:18AM 41.4453 -83.8825 274° West 368 423 36,000  Level Cleveland Center
08:19AM 41.4519 -84.0131 274° West 363 418 36,000  Level Cleveland Center
08:20AM 41.4583 -84.1436 274° West 363 418 36,000 -720 Level Cleveland Center
08:22AM 41.4703 -84.3847 274° West 342 394 33,800 -1,380 Descending Chicago Center
08:23AM 41.4756 -84.5100 273° West 340 391 31,900 -1,860 Descending Chicago Center
08:24AM 41.4819 -84.6628 273° West 344 396 30,000 -960 Descending Chicago Center
08:25AM 41.4861 -84.7917 273° West 348 400 30,000  Level Chicago Center
08:26AM 41.4914 -84.9306 273° West 369 425 30,000 -120 Level Chicago Center
08:27AM 41.4964 -85.0689 273° West 373 429 29,800 -840 Descending Chicago Center
08:28AM 41.5003 -85.1936 272° West 343 395 28,300 -1,740 Descending Chicago Center
08:29AM 41.5036 -85.3158 272° West 329 379 26,300 -1,920 Descending Chicago Center
08:30AM 41.5083 -85.4375 273° West 323 372 24,400 -1,560 Descending Chicago Center
08:31AM 41.5108 -85.5561 272° West 315 362 23,100 -1,260 Descending Chicago Center
08:32AM 41.5153 -85.6869 273° West 293 337 21,900 -1,260 Descending Chicago Center
08:33AM 41.5175 -85.7875 272° West 275 316 20,500 -1,260 Descending Chicago Center
08:34AM 41.5211 -85.8947 273° West 287 330 19,300 -1,500 Descending Chicago Center
08:35AM 41.5242 -86.0075 272° West 301 346 17,400 -1,860 Descending Chicago Center
08:36AM 41.5239 -86.1172 270° West 298 343 15,500 -1,800 Descending Chicago Center
08:37AM 41.5239 -86.2250 270° West 294 338 13,700 -1,800 Descending Chicago Center
08:38AM 41.5228 -86.3322 269° West 291 335 11,900 -1,620 Descending Chicago Center
08:39AM 41.5219 -86.4617 270° West 293 337 10,500 -1,020 Descending Chicago Center
08:40AM 41.5211 -86.5619 269° West 274 315 9,900 -300 Descending Chicago Center
08:41AM 41.5208 -86.6592 270° West 264 304 9,900 -240 Level Chicago Center
08:42AM 41.5008 -86.7567 255° West 281 323 9,500 -720 Descending Chicago Center
08:43AM 41.4619 -86.8397 238° Southwest 268 308 8,500 -1,020 Descending Chicago Center
08:44AM 41.4442 -86.9264 255° West 268 308 7,500 -1,020 Descending Chicago Center
08:45AM 41.4719 -87.0167 292° West 266 306 6,500 -780 Descending Chicago Center
08:46AM 41.5036 -87.1208 292° West 257 296 5,900 -300 Descending Chicago Center
08:47AM 41.5167 -87.1500 301° West 248 285 6,100 120 Climbing Chicago TRACON
08:48AM 41.5500 -87.2500 294° West 246 283 6,100  Level Chicago TRACON
08:49AM 41.5667 -87.3333 285° West 245 282 6,100 -60 Level Chicago TRACON
08:50AM 41.5833 -87.4000 289° West 245 282 6,000 -600 Descending Chicago TRACON
08:50AM 41.6058 -87.4547 299° West 245 282 5,100 -840 Descending Chicago Center
08:52AM 41.6356 -87.5461 294° West 234 269 4,500 -660 Descending Chicago Center
08:53AM 41.6747 -87.5992 315° West 213 245 3,800 -840 Descending Chicago Center
08:54AM 41.7117 -87.6500 314° West 202 232 2,900 -1,080 Descending Chicago Center
08:54AM 41.7167 -87.6667 292° West 171 197 2,500 -1,080 Descending Chicago TRACON
08:55AM 41.7500 -87.7000 323° Northwest 136 157 1,500 -960 Descending Chicago TRACON
08:58AM 41.7833 -87.7500 340° North  Level FlightAware Approximate